sensor_id;sensor_type;location;lat;lon;timestamp;pressure;altitude;pressure_sealevel;temperature;humidity
9822;BME280;4950;46.042;14.472;2023-07-24T00:02:13;97878.63;;;21.79;80.97
9822;BME280;4950;46.042;14.472;2023-07-24T00:04:40;97880.47;;;21.79;81.04
9822;BME280;4950;46.042;14.472;2023-07-24T00:07:07;97883.56;;;21.71;80.81
9822;BME280;4950;46.042;14.472;2023-07-24T00:09:33;97879.31;;;21.69;81.46
9822;BME280;4950;46.042;14.472;2023-07-24T00:12:01;97875.06;;;21.68;81.95
9822;BME280;4950;46.042;14.472;2023-07-24T00:14:28;97872.53;;;21.79;81.60
9822;BME280;4950;46.042;14.472;2023-07-24T00:16:54;97882.63;;;21.82;80.94
9822;BME280;4950;46.042;14.472;2023-07-24T00:19:21;97877.66;;;21.85;81.04
9822;BME280;4950;46.042;14.472;2023-07-24T00:21:48;97875.81;;;21.86;81.09
9822;BME280;4950;46.042;14.472;2023-07-24T00:24:14;97879.13;;;21.76;80.83
9822;BME280;4950;46.042;14.472;2023-07-24T00:26:41;97873.09;;;21.81;81.35
9822;BME280;4950;46.042;14.472;2023-07-24T00:31:35;97870.28;;;21.87;80.75
9822;BME280;4950;46.042;14.472;2023-07-24T00:34:02;97866.16;;;21.75;80.74
9822;BME280;4950;46.042;14.472;2023-07-24T00:36:28;97857.91;;;21.71;81.56
9822;BME280;4950;46.042;14.472;2023-07-24T00:38:55;97863.50;;;21.75;81.07
9822;BME280;4950;46.042;14.472;2023-07-24T00:41:22;97864.81;;;21.72;81.23
9822;BME280;4950;46.042;14.472;2023-07-24T00:43:48;97869.88;;;21.74;80.63
9822;BME280;4950;46.042;14.472;2023-07-24T00:46:16;97869.88;;;21.74;80.92
9822;BME280;4950;46.042;14.472;2023-07-24T00:48:43;97864.25;;;21.70;79.89
9822;BME280;4950;46.042;14.472;2023-07-24T00:51:10;97870.34;;;21.71;80.96
9822;BME280;4950;46.042;14.472;2023-07-24T00:53:37;97869.88;;;21.74;80.60
9822;BME280;4950;46.042;14.472;2023-07-24T00:56:04;97862.22;;;21.77;80.95
9822;BME280;4950;46.042;14.472;2023-07-24T01:00:58;97867.81;;;21.81;80.01
9822;BME280;4950;46.042;14.472;2023-07-24T01:03:32;97867.34;;;21.84;79.81
9822;BME280;4950;46.042;14.472;2023-07-24T01:06:01;97870.97;;;21.78;80.39
9822;BME280;4950;46.042;14.472;2023-07-24T01:08:28;97874.72;;;21.82;79.58
9822;BME280;4950;46.042;14.472;2023-07-24T01:10:57;97873.66;;;21.83;80.27
9822;BME280;4950;46.042;14.472;2023-07-24T01:13:32;97866.53;;;21.83;79.84
9822;BME280;4950;46.042;14.472;2023-07-24T01:16:04;97860.09;;;21.74;80.25
9822;BME280;4950;46.042;14.472;2023-07-24T01:18:37;97860.88;;;21.75;80.40
9822;BME280;4950;46.042;14.472;2023-07-24T01:21:09;97872.38;;;21.63;81.11
9822;BME280;4950;46.042;14.472;2023-07-24T01:23:50;97870.34;;;21.71;80.43
9822;BME280;4950;46.042;14.472;2023-07-24T01:26:23;97847.91;;;21.73;80.05
9822;BME280;4950;46.042;14.472;2023-07-24T01:28:50;97856.38;;;21.75;79.94
9822;BME280;4950;46.042;14.472;2023-07-24T01:31:16;97863.75;;;21.73;80.19
9822;BME280;4950;46.042;14.472;2023-07-24T01:33:43;97862.72;;;21.74;79.76
9822;BME280;4950;46.042;14.472;2023-07-24T01:36:10;97857.75;;;21.78;79.45
9822;BME280;4950;46.042;14.472;2023-07-24T01:38:40;97858.31;;;21.80;79.03
9822;BME280;4950;46.042;14.472;2023-07-24T01:41:07;97853.94;;;21.68;79.21
9822;BME280;4950;46.042;14.472;2023-07-24T01:43:35;97854.38;;;21.60;79.29
9822;BME280;4950;46.042;14.472;2023-07-24T01:46:02;97853.31;;;21.61;79.33
9822;BME280;4950;46.042;14.472;2023-07-24T01:48:29;97852.53;;;21.61;79.20
9822;BME280;4950;46.042;14.472;2023-07-24T01:50:55;97850.19;;;21.64;78.90
9822;BME280;4950;46.042;14.472;2023-07-24T01:53:22;97842.75;;;21.61;79.22
9822;BME280;4950;46.042;14.472;2023-07-24T01:55:48;97849.41;;;21.64;79.55
9822;BME280;4950;46.042;14.472;2023-07-24T01:58:15;97848.34;;;21.65;79.58
9822;BME280;4950;46.042;14.472;2023-07-24T02:00:43;97846.13;;;21.57;79.27
9822;BME280;4950;46.042;14.472;2023-07-24T02:03:10;97839.75;;;21.53;80.11
9822;BME280;4950;46.042;14.472;2023-07-24T02:05:36;97838.97;;;21.52;79.85
9822;BME280;4950;46.042;14.472;2023-07-24T02:08:03;97848.94;;;21.50;79.78
9822;BME280;4950;46.042;14.472;2023-07-24T02:10:30;97836.59;;;21.56;80.08
9822;BME280;4950;46.042;14.472;2023-07-24T02:12:56;97834.94;;;21.49;80.07
9822;BME280;4950;46.042;14.472;2023-07-24T02:15:23;97838.13;;;21.52;79.48
9822;BME280;4950;46.042;14.472;2023-07-24T02:17:51;97836.88;;;21.54;79.56
9822;BME280;4950;46.042;14.472;2023-07-24T02:20:18;97836.88;;;21.54;79.59
9822;BME280;4950;46.042;14.472;2023-07-24T02:22:44;97843.66;;;21.50;79.54
9822;BME280;4950;46.042;14.472;2023-07-24T02:25:11;97837.53;;;21.44;79.08
9822;BME280;4950;46.042;14.472;2023-07-24T02:27:37;97829.91;;;21.48;79.28
9822;BME280;4950;46.042;14.472;2023-07-24T02:30:05;97833.59;;;21.47;79.32
9822;BME280;4950;46.042;14.472;2023-07-24T02:32:32;97827.78;;;21.45;79.75
9822;BME280;4950;46.042;14.472;2023-07-24T02:35:00;97823.50;;;21.44;79.38
9822;BME280;4950;46.042;14.472;2023-07-24T02:37:26;97821.34;;;21.41;79.21
9822;BME280;4950;46.042;14.472;2023-07-24T02:39:53;97827.34;;;21.36;78.97
9822;BME280;4950;46.042;14.472;2023-07-24T02:42:20;97827.53;;;21.29;79.24
9822;BME280;4950;46.042;14.472;2023-07-24T02:44:46;97823.78;;;21.25;79.17
9822;BME280;4950;46.042;14.472;2023-07-24T02:47:13;97818.50;;;21.25;79.04
9822;BME280;4950;46.042;14.472;2023-07-24T02:49:39;97815.88;;;21.25;79.34
9822;BME280;4950;46.042;14.472;2023-07-24T02:52:07;97815.56;;;21.22;79.09
9822;BME280;4950;46.042;14.472;2023-07-24T02:54:34;97814.22;;;21.19;79.34
9822;BME280;4950;46.042;14.472;2023-07-24T02:57:01;97818.13;;;21.17;79.40
9822;BME280;4950;46.042;14.472;2023-07-24T02:59:29;97812.38;;;21.20;79.49
9822;BME280;4950;46.042;14.472;2023-07-24T03:01:56;97811.31;;;21.21;79.60
9822;BME280;4950;46.042;14.472;2023-07-24T03:04:23;97804.69;;;21.18;79.27
9822;BME280;4950;46.042;14.472;2023-07-24T03:06:50;97807.28;;;21.13;79.48
9822;BME280;4950;46.042;14.472;2023-07-24T03:09:18;97809.09;;;21.13;79.48
9822;BME280;4950;46.042;14.472;2023-07-24T03:11:44;97811.97;;;21.11;79.38
9822;BME280;4950;46.042;14.472;2023-07-24T03:14:11;97808.53;;;21.10;79.63
9822;BME280;4950;46.042;14.472;2023-07-24T03:16:38;97810.16;;;21.12;80.11
9822;BME280;4950;46.042;14.472;2023-07-24T03:19:04;97806.13;;;21.09;79.54
9822;BME280;4950;46.042;14.472;2023-07-24T03:21:31;97806.09;;;21.04;80.03
9822;BME280;4950;46.042;14.472;2023-07-24T03:23:58;97817.44;;;21.04;79.93
9822;BME280;4950;46.042;14.472;2023-07-24T03:26:26;97817.19;;;21.06;80.05
9822;BME280;4950;46.042;14.472;2023-07-24T03:28:52;97815.13;;;21.08;80.27
9822;BME280;4950;46.042;14.472;2023-07-24T03:31:19;97813.50;;;21.07;79.85
9822;BME280;4950;46.042;14.472;2023-07-24T03:33:45;97816.66;;;21.04;79.88
9822;BME280;4950;46.042;14.472;2023-07-24T03:36:12;97818.50;;;21.03;80.17
9822;BME280;4950;46.042;14.472;2023-07-24T03:38:39;97829.06;;;21.03;79.79
9822;BME280;4950;46.042;14.472;2023-07-24T03:41:05;97822.16;;;21.02;79.85
9822;BME280;4950;46.042;14.472;2023-07-24T03:43:33;97817.34;;;20.99;79.98
9822;BME280;4950;46.042;14.472;2023-07-24T03:46:00;97831.84;;;20.97;80.10
9822;BME280;4950;46.042;14.472;2023-07-24T03:48:26;97830.75;;;20.93;79.88
9822;BME280;4950;46.042;14.472;2023-07-24T03:50:58;97818.59;;;20.92;80.07
9822;BME280;4950;46.042;14.472;2023-07-24T03:53:25;97825.38;;;20.87;80.62
9822;BME280;4950;46.042;14.472;2023-07-24T03:55:52;97827.06;;;20.94;80.21
9822;BME280;4950;46.042;14.472;2023-07-24T03:58:19;97820.25;;;20.98;79.99
9822;BME280;4950;46.042;14.472;2023-07-24T04:00:47;97835.28;;;20.97;80.13
9822;BME280;4950;46.042;14.472;2023-07-24T04:03:15;97830.97;;;20.91;80.62
9822;BME280;4950;46.042;14.472;2023-07-24T04:05:41;97829.63;;;20.88;80.74
9822;BME280;4950;46.042;14.472;2023-07-24T04:08:08;97819.63;;;20.90;79.97
9822;BME280;4950;46.042;14.472;2023-07-24T04:10:35;97820.75;;;20.95;80.26
9822;BME280;4950;46.042;14.472;2023-07-24T04:13:01;97813.94;;;20.99;80.23
9822;BME280;4950;46.042;14.472;2023-07-24T04:15:28;97810.50;;;20.98;80.22
9822;BME280;4950;46.042;14.472;2023-07-24T04:17:56;97820.25;;;20.98;80.41
9822;BME280;4950;46.042;14.472;2023-07-24T04:20:22;97811.47;;;20.92;80.56
9822;BME280;4950;46.042;14.472;2023-07-24T04:22:49;97810.69;;;20.92;80.85
9822;BME280;4950;46.042;14.472;2023-07-24T04:25:16;97803.22;;;20.88;80.60
9822;BME280;4950;46.042;14.472;2023-07-24T04:27:43;97811.00;;;20.78;81.29
9822;BME280;4950;46.042;14.472;2023-07-24T04:30:10;97803.00;;;20.73;81.50
9822;BME280;4950;46.042;14.472;2023-07-24T04:32:37;97807.41;;;20.67;81.47
9822;BME280;4950;46.042;14.472;2023-07-24T04:35:06;97802.38;;;20.66;82.14
9822;BME280;4950;46.042;14.472;2023-07-24T04:37:33;97809.09;;;20.74;81.87
9822;BME280;4950;46.042;14.472;2023-07-24T04:39:59;97812.53;;;20.74;82.14
9822;BME280;4950;46.042;14.472;2023-07-24T04:42:26;97814.69;;;20.77;81.76
9822;BME280;4950;46.042;14.472;2023-07-24T04:44:53;97803.16;;;20.83;81.58
9822;BME280;4950;46.042;14.472;2023-07-24T04:47:19;97805.31;;;20.86;81.51
9822;BME280;4950;46.042;14.472;2023-07-24T04:49:46;97807.22;;;20.91;81.23
9822;BME280;4950;46.042;14.472;2023-07-24T04:52:14;97802.75;;;20.92;81.49
9822;BME280;4950;46.042;14.472;2023-07-24T04:54:40;97803.31;;;20.94;81.94
9822;BME280;4950;46.042;14.472;2023-07-24T04:57:07;97805.97;;;20.94;81.80
9822;BME280;4950;46.042;14.472;2023-07-24T04:59:34;97798.28;;;20.92;81.75
9822;BME280;4950;46.042;14.472;2023-07-24T05:02:00;97805.97;;;20.94;81.54
9822;BME280;4950;46.042;14.472;2023-07-24T05:04:27;97803.94;;;21.01;81.57
9822;BME280;4950;46.042;14.472;2023-07-24T05:06:54;97796.00;;;21.01;81.40
9822;BME280;4950;46.042;14.472;2023-07-24T05:09:22;97804.47;;;21.03;81.64
9822;BME280;4950;46.042;14.472;2023-07-24T05:11:48;97805.84;;;21.05;80.81
9822;BME280;4950;46.042;14.472;2023-07-24T05:14:15;97807.13;;;21.03;80.82
9822;BME280;4950;46.042;14.472;2023-07-24T05:16:41;97808.66;;;20.99;80.38
9822;BME280;4950;46.042;14.472;2023-07-24T05:19:08;97803.56;;;20.92;80.17
9822;BME280;4950;46.042;14.472;2023-07-24T05:21:35;97804.44;;;20.98;80.14
9822;BME280;4950;46.042;14.472;2023-07-24T05:24:01;97801.03;;;21.02;80.31
9822;BME280;4950;46.042;14.472;2023-07-24T05:26:29;97803.94;;;21.01;80.98
9822;BME280;4950;46.042;14.472;2023-07-24T05:28:56;97802.09;;;21.01;81.25
9822;BME280;4950;46.042;14.472;2023-07-24T05:31:23;97801.13;;;21.07;81.31
9822;BME280;4950;46.042;14.472;2023-07-24T05:33:49;97800.47;;;21.17;81.31
9822;BME280;4950;46.042;14.472;2023-07-24T05:36:16;97801.81;;;21.20;80.59
9822;BME280;4950;46.042;14.472;2023-07-24T05:38:43;97812.38;;;21.20;80.22
9822;BME280;4950;46.042;14.472;2023-07-24T05:41:09;97811.81;;;21.18;80.10
9822;BME280;4950;46.042;14.472;2023-07-24T05:43:37;97819.50;;;21.19;79.90
9822;BME280;4950;46.042;14.472;2023-07-24T05:46:04;97804.91;;;21.17;79.85
9822;BME280;4950;46.042;14.472;2023-07-24T05:48:30;97799.03;;;21.09;79.83
9822;BME280;4950;46.042;14.472;2023-07-24T05:50:57;97804.06;;;21.11;80.49
9822;BME280;4950;46.042;14.472;2023-07-24T05:53:24;97801.50;;;21.16;80.60
9822;BME280;4950;46.042;14.472;2023-07-24T05:55:57;97801.06;;;21.24;80.02
9822;BME280;4950;46.042;14.472;2023-07-24T05:58:24;97802.66;;;21.25;80.17
9822;BME280;4950;46.042;14.472;2023-07-24T06:00:52;97803.09;;;21.17;80.54
9822;BME280;4950;46.042;14.472;2023-07-24T06:03:19;97809.09;;;21.13;81.14
9822;BME280;4950;46.042;14.472;2023-07-24T06:05:50;97805.44;;;21.14;80.76
9822;BME280;4950;46.042;14.472;2023-07-24T06:08:17;97807.66;;;21.05;79.63
9822;BME280;4950;46.042;14.472;2023-07-24T06:10:46;97813.81;;;21.10;80.29
9822;BME280;4950;46.042;14.472;2023-07-24T06:13:13;97828.44;;;21.18;80.49
9822;BME280;4950;46.042;14.472;2023-07-24T06:15:40;97820.75;;;21.17;79.73
9822;BME280;4950;46.042;14.472;2023-07-24T06:18:09;97819.50;;;21.19;79.38
9822;BME280;4950;46.042;14.472;2023-07-24T06:20:36;97813.16;;;21.20;78.87
9822;BME280;4950;46.042;14.472;2023-07-24T06:23:02;97810.03;;;21.23;78.76
9822;BME280;4950;46.042;14.472;2023-07-24T06:25:29;97808.97;;;21.24;79.24
9822;BME280;4950;46.042;14.472;2023-07-24T06:27:56;97811.16;;;21.27;78.55
9822;BME280;4950;46.042;14.472;2023-07-24T06:30:22;97807.53;;;21.34;79.04
9822;BME280;4950;46.042;14.472;2023-07-24T06:32:49;97803.66;;;21.41;78.24
9822;BME280;4950;46.042;14.472;2023-07-24T06:35:17;97784.75;;;21.49;78.26
9822;BME280;4950;46.042;14.472;2023-07-24T06:37:44;97774.25;;;21.55;78.62
9822;BME280;4950;46.042;14.472;2023-07-24T06:40:11;97764.25;;;21.57;78.44
9822;BME280;4950;46.042;14.472;2023-07-24T06:42:38;97776.69;;;21.61;78.06
9822;BME280;4950;46.042;14.472;2023-07-24T06:45:06;97780.97;;;21.67;78.12
9822;BME280;4950;46.042;14.472;2023-07-24T06:47:33;97776.56;;;21.73;78.27
9822;BME280;4950;46.042;14.472;2023-07-24T06:49:59;97772.41;;;21.82;78.13
9822;BME280;4950;46.042;14.472;2023-07-24T06:52:28;97771.41;;;21.88;77.75
9822;BME280;4950;46.042;14.472;2023-07-24T06:54:55;97764.34;;;21.94;77.74
9822;BME280;4950;46.042;14.472;2023-07-24T06:57:23;97775.75;;;22.00;78.13
9822;BME280;4950;46.042;14.472;2023-07-24T06:59:50;97776.84;;;22.04;77.67
9822;BME280;4950;46.042;14.472;2023-07-24T07:02:16;97768.16;;;22.08;77.74
9822;BME280;4950;46.042;14.472;2023-07-24T07:04:43;97777.22;;;22.13;78.41
9822;BME280;4950;46.042;14.472;2023-07-24T07:07:10;97784.13;;;22.19;78.42
9822;BME280;4950;46.042;14.472;2023-07-24T07:09:38;97782.81;;;22.21;78.76
9822;BME280;4950;46.042;14.472;2023-07-24T07:12:06;97779.44;;;22.26;78.14
9822;BME280;4950;46.042;14.472;2023-07-24T07:14:32;97773.91;;;22.27;77.75
9822;BME280;4950;46.042;14.472;2023-07-24T07:16:59;97774.19;;;22.31;77.80
9822;BME280;4950;46.042;14.472;2023-07-24T07:19:27;97763.91;;;22.35;77.62
9822;BME280;4950;46.042;14.472;2023-07-24T07:21:53;97754.63;;;22.32;76.98
9822;BME280;4950;46.042;14.472;2023-07-24T07:24:20;97754.66;;;22.37;76.92
9822;BME280;4950;46.042;14.472;2023-07-24T07:26:48;97754.19;;;22.40;76.90
9822;BME280;4950;46.042;14.472;2023-07-24T07:29:15;97749.97;;;22.44;77.14
9822;BME280;4950;46.042;14.472;2023-07-24T07:31:41;97750.81;;;22.55;76.96
9822;BME280;4950;46.042;14.472;2023-07-24T07:34:08;97754.03;;;22.62;77.29
9822;BME280;4950;46.042;14.472;2023-07-24T07:36:34;97754.34;;;22.66;76.73
9822;BME280;4950;46.042;14.472;2023-07-24T07:39:01;97756.47;;;22.69;76.57
9822;BME280;4950;46.042;14.472;2023-07-24T07:41:28;97752.53;;;22.77;76.52
9822;BME280;4950;46.042;14.472;2023-07-24T07:43:56;97745.41;;;22.82;77.06
9822;BME280;4950;46.042;14.472;2023-07-24T07:46:23;97740.69;;;22.90;76.94
9822;BME280;4950;46.042;14.472;2023-07-24T07:48:51;97731.19;;;22.94;77.38
9822;BME280;4950;46.042;14.472;2023-07-24T07:51:17;97727.75;;;22.98;77.43
9822;BME280;4950;46.042;14.472;2023-07-24T07:53:44;97733.34;;;23.02;78.15
9822;BME280;4950;46.042;14.472;2023-07-24T07:56:11;97727.03;;;23.08;77.90
9822;BME280;4950;46.042;14.472;2023-07-24T07:58:37;97713.56;;;23.15;77.67
9822;BME280;4950;46.042;14.472;2023-07-24T08:01:05;97700.84;;;23.22;77.56
9822;BME280;4950;46.042;14.472;2023-07-24T08:03:32;97690.53;;;23.25;78.39
9822;BME280;4950;46.042;14.472;2023-07-24T08:05:59;97703.31;;;23.34;77.87
9822;BME280;4950;46.042;14.472;2023-07-24T08:08:26;97704.91;;;23.40;76.99
9822;BME280;4950;46.042;14.472;2023-07-24T08:10:53;97717.09;;;23.51;76.11
9822;BME280;4950;46.042;14.472;2023-07-24T08:13:19;97710.25;;;23.55;75.39
9822;BME280;4950;46.042;14.472;2023-07-24T08:15:46;97707.56;;;23.60;75.34
9822;BME280;4950;46.042;14.472;2023-07-24T08:18:14;97713.16;;;23.69;73.57
9822;BME280;4950;46.042;14.472;2023-07-24T08:20:41;97710.00;;;23.82;74.56
9822;BME280;4950;46.042;14.472;2023-07-24T08:23:07;97694.38;;;23.91;74.23
9822;BME280;4950;46.042;14.472;2023-07-24T08:25:34;97692.50;;;24.02;75.01
9822;BME280;4950;46.042;14.472;2023-07-24T08:28:00;97686.94;;;24.14;73.95
9822;BME280;4950;46.042;14.472;2023-07-24T08:30:27;97669.97;;;24.20;74.02
9822;BME280;4950;46.042;14.472;2023-07-24T08:32:54;97663.31;;;24.28;73.33
9822;BME280;4950;46.042;14.472;2023-07-24T08:35:23;97658.25;;;24.36;71.76
9822;BME280;4950;46.042;14.472;2023-07-24T08:37:49;97646.03;;;24.46;71.67
9822;BME280;4950;46.042;14.472;2023-07-24T08:40:16;97628.75;;;24.48;71.11
9822;BME280;4950;46.042;14.472;2023-07-24T08:42:43;97630.09;;;24.56;71.65
9822;BME280;4950;46.042;14.472;2023-07-24T08:45:11;97625.28;;;24.63;72.69
9822;BME280;4950;46.042;14.472;2023-07-24T08:47:42;97635.09;;;24.73;72.40
9822;BME280;4950;46.042;14.472;2023-07-24T08:50:09;97625.75;;;24.80;72.16
9822;BME280;4950;46.042;14.472;2023-07-24T08:52:39;97621.72;;;24.88;71.87
9822;BME280;4950;46.042;14.472;2023-07-24T08:55:08;97617.41;;;24.97;71.72
9822;BME280;4950;46.042;14.472;2023-07-24T08:57:36;97615.25;;;25.05;70.72
9822;BME280;4950;46.042;14.472;2023-07-24T09:00:04;97615.97;;;25.15;70.46
9822;BME280;4950;46.042;14.472;2023-07-24T09:02:31;97612.25;;;25.21;70.09
9822;BME280;4950;46.042;14.472;2023-07-24T09:04:58;97613.03;;;25.27;70.66
9822;BME280;4950;46.042;14.472;2023-07-24T09:07:25;97609.53;;;25.32;70.71
9822;BME280;4950;46.042;14.472;2023-07-24T09:09:53;97602.59;;;25.36;68.95
9822;BME280;4950;46.042;14.472;2023-07-24T09:12:22;97615.88;;;25.41;69.53
9822;BME280;4950;46.042;14.472;2023-07-24T09:14:49;97615.81;;;25.46;68.78
9822;BME280;4950;46.042;14.472;2023-07-24T09:17:15;97615.50;;;25.53;68.40
9822;BME280;4950;46.042;14.472;2023-07-24T09:19:42;97624.25;;;25.58;69.36
9822;BME280;4950;46.042;14.472;2023-07-24T09:22:10;97628.91;;;25.72;69.46
9822;BME280;4950;46.042;14.472;2023-07-24T09:24:38;97636.84;;;25.77;68.96
9822;BME280;4950;46.042;14.472;2023-07-24T09:27:06;97631.44;;;25.87;68.34
9822;BME280;4950;46.042;14.472;2023-07-24T09:29:33;97631.38;;;25.97;67.97
9822;BME280;4950;46.042;14.472;2023-07-24T09:32:00;97626.19;;;26.11;66.98
9822;BME280;4950;46.042;14.472;2023-07-24T09:34:27;97630.03;;;26.24;67.57
9822;BME280;4950;46.042;14.472;2023-07-24T09:36:54;97628.34;;;26.33;67.10
9822;BME280;4950;46.042;14.472;2023-07-24T09:39:24;97622.88;;;26.49;63.38
9822;BME280;4950;46.042;14.472;2023-07-24T09:41:51;97616.38;;;26.60;63.06
9822;BME280;4950;46.042;14.472;2023-07-24T09:44:21;97614.38;;;26.71;63.06
9822;BME280;4950;46.042;14.472;2023-07-24T09:46:47;97597.22;;;26.77;61.75
9822;BME280;4950;46.042;14.472;2023-07-24T09:49:14;97582.97;;;26.87;62.46
9822;BME280;4950;46.042;14.472;2023-07-24T09:51:45;97579.59;;;27.00;60.68
9822;BME280;4950;46.042;14.472;2023-07-24T09:54:15;97567.56;;;27.03;59.45
9822;BME280;4950;46.042;14.472;2023-07-24T09:56:45;97553.69;;;27.06;60.22
9822;BME280;4950;46.042;14.472;2023-07-24T09:59:12;97555.47;;;27.10;60.41
9822;BME280;4950;46.042;14.472;2023-07-24T10:01:41;97543.94;;;27.15;61.26
9822;BME280;4950;46.042;14.472;2023-07-24T10:04:09;97523.34;;;27.21;61.26
9822;BME280;4950;46.042;14.472;2023-07-24T10:06:36;97521.59;;;27.30;61.96
9822;BME280;4950;46.042;14.472;2023-07-24T10:09:03;97539.63;;;27.38;61.54
9822;BME280;4950;46.042;14.472;2023-07-24T10:11:31;97538.34;;;27.49;62.11
9822;BME280;4950;46.042;14.472;2023-07-24T10:13:59;97550.34;;;27.66;60.16
9822;BME280;4950;46.042;14.472;2023-07-24T10:16:27;97549.75;;;27.69;59.43
9822;BME280;4950;46.042;14.472;2023-07-24T10:18:55;97547.78;;;27.74;60.39
9822;BME280;4950;46.042;14.472;2023-07-24T10:21:26;97540.47;;;27.80;60.96
9822;BME280;4950;46.042;14.472;2023-07-24T10:23:53;97555.66;;;27.99;60.76
9822;BME280;4950;46.042;14.472;2023-07-24T10:26:24;97567.22;;;28.08;60.49
9822;BME280;4950;46.042;14.472;2023-07-24T10:28:51;97585.81;;;28.13;60.39
9822;BME280;4950;46.042;14.472;2023-07-24T10:31:21;97587.38;;;28.28;62.16
9822;BME280;4950;46.042;14.472;2023-07-24T10:33:48;97576.53;;;28.52;57.38
9822;BME280;4950;46.042;14.472;2023-07-24T10:36:18;97578.28;;;28.57;58.24
9822;BME280;4950;46.042;14.472;2023-07-24T10:38:52;97584.25;;;28.53;58.53
9822;BME280;4950;46.042;14.472;2023-07-24T10:41:19;97603.44;;;28.55;58.77
9822;BME280;4950;46.042;14.472;2023-07-24T10:43:47;97611.53;;;28.50;58.29
9822;BME280;4950;46.042;14.472;2023-07-24T10:46:16;97601.75;;;28.46;56.35
9822;BME280;4950;46.042;14.472;2023-07-24T10:48:45;97481.34;;;28.42;55.63
9822;BME280;4950;46.042;14.472;2023-07-24T10:51:13;97479.28;;;28.39;55.92
9822;BME280;4950;46.042;14.472;2023-07-24T10:53:44;97512.22;;;28.34;56.32
9822;BME280;4950;46.042;14.472;2023-07-24T10:56:11;97520.34;;;28.29;57.27
9822;BME280;4950;46.042;14.472;2023-07-24T10:58:38;97515.91;;;28.25;57.37
9822;BME280;4950;46.042;14.472;2023-07-24T11:01:05;97511.34;;;28.25;58.20
9822;BME280;4950;46.042;14.472;2023-07-24T11:03:35;97527.66;;;28.24;58.68
9822;BME280;4950;46.042;14.472;2023-07-24T11:06:03;97555.94;;;28.25;59.54
9822;BME280;4950;46.042;14.472;2023-07-24T11:08:29;97560.69;;;28.28;60.09
9822;BME280;4950;46.042;14.472;2023-07-24T11:10:59;97584.63;;;28.33;60.32
9822;BME280;4950;46.042;14.472;2023-07-24T11:13:28;97609.75;;;28.46;61.39
9822;BME280;4950;46.042;14.472;2023-07-24T11:15:55;97609.38;;;28.52;61.42
9822;BME280;4950;46.042;14.472;2023-07-24T11:18:22;97611.81;;;28.63;61.00
9822;BME280;4950;46.042;14.472;2023-07-24T11:20:53;97603.50;;;28.64;60.18
9822;BME280;4950;46.042;14.472;2023-07-24T11:23:21;97545.53;;;28.65;60.33
9822;BME280;4950;46.042;14.472;2023-07-24T11:25:49;97551.84;;;28.69;58.95
9822;BME280;4950;46.042;14.472;2023-07-24T11:28:18;97597.94;;;28.74;59.29
9822;BME280;4950;46.042;14.472;2023-07-24T11:30:45;97595.47;;;28.78;58.41
9822;BME280;4950;46.042;14.472;2023-07-24T11:33:15;97613.31;;;28.83;56.36
9822;BME280;4950;46.042;14.472;2023-07-24T11:35:42;97618.53;;;28.88;56.10
9822;BME280;4950;46.042;14.472;2023-07-24T11:38:09;97609.22;;;28.85;56.93
9822;BME280;4950;46.042;14.472;2023-07-24T11:40:38;97604.47;;;28.82;56.60
9822;BME280;4950;46.042;14.472;2023-07-24T11:43:05;97591.72;;;28.79;55.72
9822;BME280;4950;46.042;14.472;2023-07-24T11:45:41;97600.63;;;28.74;53.86
9822;BME280;4950;46.042;14.472;2023-07-24T11:48:09;97599.56;;;28.75;52.61
9822;BME280;4950;46.042;14.472;2023-07-24T11:50:42;97607.56;;;28.75;54.85
9822;BME280;4950;46.042;14.472;2023-07-24T11:53:18;97608.63;;;28.74;54.17
9822;BME280;4950;46.042;14.472;2023-07-24T11:55:45;97604.50;;;28.68;53.25
9822;BME280;4950;46.042;14.472;2023-07-24T11:58:15;97605.41;;;28.64;53.13
9822;BME280;4950;46.042;14.472;2023-07-24T12:00:43;97603.03;;;28.62;54.10
9822;BME280;4950;46.042;14.472;2023-07-24T12:03:10;97592.63;;;28.61;53.31
9822;BME280;4950;46.042;14.472;2023-07-24T12:05:40;97585.59;;;28.65;54.25
9822;BME280;4950;46.042;14.472;2023-07-24T12:08:07;97565.19;;;28.69;55.39
9822;BME280;4950;46.042;14.472;2023-07-24T12:10:36;97558.19;;;28.73;55.57
9822;BME280;4950;46.042;14.472;2023-07-24T12:13:03;97550.19;;;28.73;55.10
9822;BME280;4950;46.042;14.472;2023-07-24T12:15:30;97546.41;;;28.74;55.29
9822;BME280;4950;46.042;14.472;2023-07-24T12:17:59;97543.72;;;28.74;56.10
9822;BME280;4950;46.042;14.472;2023-07-24T12:20:26;97542.31;;;28.77;55.39
9822;BME280;4950;46.042;14.472;2023-07-24T12:22:53;97529.16;;;28.80;55.28
9822;BME280;4950;46.042;14.472;2023-07-24T12:25:20;97500.44;;;28.86;56.14
9822;BME280;4950;46.042;14.472;2023-07-24T12:27:47;97497.34;;;28.92;57.11
9822;BME280;4950;46.042;14.472;2023-07-24T12:30:14;97465.94;;;28.98;57.07
9822;BME280;4950;46.042;14.472;2023-07-24T12:32:40;97447.41;;;29.02;53.67
9822;BME280;4950;46.042;14.472;2023-07-24T12:35:10;97432.03;;;29.07;53.80
9822;BME280;4950;46.042;14.472;2023-07-24T12:37:37;97423.91;;;29.12;52.45
9822;BME280;4950;46.042;14.472;2023-07-24T12:40:06;97424.69;;;29.13;53.26
9822;BME280;4950;46.042;14.472;2023-07-24T12:42:33;97431.31;;;29.16;52.57
9822;BME280;4950;46.042;14.472;2023-07-24T12:44:59;97431.94;;;29.12;51.95
9822;BME280;4950;46.042;14.472;2023-07-24T12:47:28;97441.34;;;29.10;52.32
9822;BME280;4950;46.042;14.472;2023-07-24T12:49:55;97452.03;;;29.10;52.40
9822;BME280;4950;46.042;14.472;2023-07-24T12:52:24;97472.75;;;29.04;52.35
9822;BME280;4950;46.042;14.472;2023-07-24T12:54:51;97472.25;;;29.02;52.55
9822;BME280;4950;46.042;14.472;2023-07-24T12:57:18;97464.34;;;28.97;51.91
9822;BME280;4950;46.042;14.472;2023-07-24T12:59:44;97479.44;;;28.93;52.46
9822;BME280;4950;46.042;14.472;2023-07-24T13:02:11;97492.91;;;28.88;51.68
9822;BME280;4950;46.042;14.472;2023-07-24T13:04:38;97487.84;;;28.86;50.71
9822;BME280;4950;46.042;14.472;2023-07-24T13:07:08;97474.16;;;28.79;51.59
9822;BME280;4950;46.042;14.472;2023-07-24T13:09:36;97460.13;;;28.73;52.96
9822;BME280;4950;46.042;14.472;2023-07-24T13:12:03;97434.94;;;28.74;52.09
9822;BME280;4950;46.042;14.472;2023-07-24T13:14:30;97411.03;;;28.69;52.20
9822;BME280;4950;46.042;14.472;2023-07-24T13:16:56;97399.69;;;28.64;50.54